createdAt,value
2022-10-15T00:00:40.030Z,1.40
2022-10-15T00:03:07.098Z,1.13
2022-10-15T00:05:37.079Z,1.40
2022-10-15T00:08:04.855Z,1.50
2022-10-15T00:10:31.914Z,1.20
2022-10-15T00:12:58.969Z,1.30
2022-10-15T00:15:25.774Z,1.20
2022-10-15T00:17:52.488Z,1.20
2022-10-15T00:20:19.279Z,1.20
2022-10-15T00:22:46.157Z,1.17
2022-10-15T00:25:12.824Z,0.97
2022-10-15T00:27:39.857Z,1.00
2022-10-15T00:30:07.389Z,1.33
2022-10-15T00:32:34.200Z,1.20
2022-10-15T00:35:00.926Z,1.20
2022-10-15T00:37:27.550Z,1.10
2022-10-15T00:39:54.268Z,1.30
2022-10-15T00:42:21.318Z,1.10
2022-10-15T00:44:52.006Z,1.20
2022-10-15T00:47:23.697Z,1.10
2022-10-15T00:50:08.737Z,1.00
2022-10-15T00:53:06.218Z,0.80
2022-10-15T00:55:42.754Z,1.00
2022-10-15T01:00:45.281Z,0.97
2022-10-15T01:03:12.865Z,0.90
2022-10-15T01:05:40.675Z,1.00
2022-10-15T01:08:07.342Z,1.10
2022-10-15T01:11:05.451Z,0.90
2022-10-15T01:13:55.647Z,0.90
2022-10-15T01:16:39.378Z,0.80
2022-10-15T01:19:57.783Z,0.80
2022-10-15T01:22:53.679Z,1.00
2022-10-15T01:25:55.649Z,0.83
2022-10-15T01:28:53.250Z,1.10
2022-10-15T01:31:52.830Z,0.90
2022-10-15T01:34:25.906Z,0.90
2022-10-15T01:37:33.550Z,1.20
2022-10-15T01:40:34.268Z,0.97
2022-10-15T01:43:04.516Z,0.80
2022-10-15T01:45:36.020Z,1.00
2022-10-15T01:48:07.433Z,1.00
2022-10-15T01:50:37.729Z,0.90
2022-10-15T01:53:06.283Z,0.80
2022-10-15T01:55:35.772Z,0.80
2022-10-15T01:58:04.766Z,0.90
2022-10-15T02:00:31.433Z,0.90
2022-10-15T02:03:01.939Z,0.70
2022-10-15T02:05:45.148Z,0.70
2022-10-15T02:08:26.496Z,0.80
2022-10-15T02:11:12.624Z,0.90
2022-10-15T02:13:52.486Z,0.90
2022-10-15T02:16:40.402Z,0.90
2022-10-15T02:19:22.536Z,0.73
2022-10-15T02:21:57.099Z,0.80
2022-10-15T02:24:39.765Z,0.90
2022-10-15T02:27:08.106Z,0.80
2022-10-15T02:29:38.802Z,0.83
2022-10-15T02:32:07.312Z,0.93
2022-10-15T02:34:35.743Z,1.00
2022-10-15T02:37:04.882Z,0.83
2022-10-15T02:39:31.736Z,0.77
2022-10-15T02:41:58.727Z,0.90
2022-10-15T02:44:25.574Z,0.80
2022-10-15T02:46:52.459Z,0.80
2022-10-15T02:49:19.129Z,0.90
2022-10-15T02:51:45.797Z,0.80
2022-10-15T02:54:12.494Z,0.90
2022-10-15T02:56:39.556Z,0.90
2022-10-15T02:59:06.649Z,0.93
2022-10-15T03:01:34.252Z,0.80
2022-10-15T03:04:01.539Z,0.80
2022-10-15T03:06:28.940Z,0.80
2022-10-15T03:08:55.604Z,0.90
2022-10-15T03:11:22.278Z,0.80
2022-10-15T03:13:49.000Z,0.80
2022-10-15T03:16:15.709Z,0.80
2022-10-15T03:18:42.374Z,0.73
2022-10-15T03:21:09.154Z,0.80
2022-10-15T03:23:35.797Z,0.80
2022-10-15T03:26:02.570Z,0.80
2022-10-15T03:28:29.251Z,0.80
2022-10-15T03:30:55.933Z,0.90
2022-10-15T03:33:25.028Z,0.70
2022-10-15T03:35:52.731Z,0.80
2022-10-15T03:38:19.857Z,0.77
2022-10-15T03:40:46.732Z,0.80
2022-10-15T03:43:13.424Z,0.77
2022-10-15T03:45:40.588Z,0.70
2022-10-15T03:48:07.353Z,0.90
2022-10-15T03:50:34.372Z,0.80
2022-10-15T03:53:04.813Z,0.80
2022-10-15T03:55:31.728Z,0.87
2022-10-15T03:57:58.526Z,0.87
2022-10-15T04:00:25.413Z,0.80
2022-10-15T04:02:52.079Z,0.93
2022-10-15T04:05:18.791Z,1.20
2022-10-15T04:07:45.562Z,0.80
2022-10-15T04:10:12.230Z,1.00
2022-10-15T04:12:38.902Z,0.80
2022-10-15T04:15:06.007Z,1.00
2022-10-15T04:17:32.762Z,0.87
2022-10-15T04:19:59.436Z,0.80
2022-10-15T04:22:26.387Z,0.70
2022-10-15T04:24:53.360Z,0.80
2022-10-15T04:27:20.061Z,0.90
2022-10-15T04:29:48.899Z,0.80
2022-10-15T04:32:16.629Z,0.70
2022-10-15T04:34:43.680Z,0.80
2022-10-15T04:37:10.415Z,0.90
2022-10-15T04:39:37.073Z,0.80
2022-10-15T04:42:04.111Z,0.70
2022-10-15T04:44:30.806Z,0.73
2022-10-15T04:46:58.324Z,0.70
2022-10-15T04:49:24.994Z,0.80
2022-10-15T04:51:51.660Z,0.70
2022-10-15T04:54:18.349Z,0.70
2022-10-15T04:56:45.119Z,0.70
2022-10-15T04:59:11.817Z,0.70
2022-10-15T05:01:38.484Z,0.90
2022-10-15T05:04:05.246Z,0.80
2022-10-15T05:06:33.120Z,0.70
2022-10-15T05:09:01.610Z,0.80
2022-10-15T05:11:28.423Z,0.90
2022-10-15T05:13:56.798Z,0.90
2022-10-15T05:16:26.572Z,1.00
2022-10-15T05:19:00.278Z,0.83
2022-10-15T05:21:27.693Z,1.00
2022-10-15T05:23:54.832Z,0.80
2022-10-15T05:26:23.997Z,0.80
2022-10-15T05:28:51.904Z,0.83
2022-10-15T05:31:23.572Z,0.80
2022-10-15T05:33:52.354Z,0.90
2022-10-15T05:36:26.352Z,1.00
2022-10-15T05:38:55.409Z,0.93
2022-10-15T05:41:22.553Z,0.70
2022-10-15T05:43:53.695Z,0.90
2022-10-15T05:46:20.791Z,0.90
2022-10-15T05:48:58.274Z,1.00
2022-10-15T05:51:26.360Z,0.90
2022-10-15T05:53:54.424Z,0.80
2022-10-15T05:56:21.495Z,0.90
2022-10-15T05:58:48.181Z,0.80
2022-10-15T06:01:15.139Z,0.80
2022-10-15T06:03:42.858Z,0.80
2022-10-15T06:06:21.128Z,1.10
2022-10-15T06:08:48.722Z,1.03
2022-10-15T06:11:16.093Z,0.80
2022-10-15T06:13:44.543Z,0.80
2022-10-15T06:16:12.089Z,0.80
2022-10-15T06:18:39.220Z,0.90
2022-10-15T06:21:07.625Z,0.80
2022-10-15T06:23:34.722Z,0.90
2022-10-15T06:26:07.210Z,0.90
2022-10-15T06:28:34.646Z,0.90
2022-10-15T06:31:01.718Z,0.80
2022-10-15T06:33:29.124Z,1.13
2022-10-15T06:36:00.237Z,1.00
2022-10-15T06:38:27.177Z,1.00
2022-10-15T06:40:53.934Z,1.03
2022-10-15T06:43:20.650Z,1.20
2022-10-15T06:45:47.301Z,1.20
2022-10-15T06:48:13.933Z,1.20
2022-10-15T06:50:40.793Z,1.00
2022-10-15T06:53:07.698Z,1.10
2022-10-15T06:55:35.105Z,1.30
2022-10-15T06:58:02.071Z,1.20
2022-10-15T07:00:29.114Z,1.40
2022-10-15T07:02:55.884Z,1.13
2022-10-15T07:05:22.629Z,1.30
2022-10-15T07:07:56.593Z,1.10
2022-10-15T07:10:24.470Z,1.23
2022-10-15T07:12:51.318Z,1.03
2022-10-15T07:15:19.144Z,1.13
2022-10-15T07:17:53.130Z,1.10
2022-10-15T07:20:23.550Z,1.40
2022-10-15T07:22:55.628Z,1.20
2022-10-15T07:25:22.426Z,1.30
2022-10-15T07:27:49.183Z,1.10
2022-10-15T07:30:15.945Z,1.00
2022-10-15T07:32:45.568Z,1.17
2022-10-15T07:35:13.436Z,1.27
2022-10-15T07:37:40.829Z,1.10
2022-10-15T07:40:08.097Z,1.43
2022-10-15T07:42:35.054Z,1.30
2022-10-15T07:45:01.766Z,1.30
2022-10-15T07:47:28.468Z,1.10
2022-10-15T07:49:55.235Z,1.17
2022-10-15T07:52:22.473Z,1.47
2022-10-15T07:54:49.632Z,1.20
2022-10-15T07:57:17.787Z,1.60
2022-10-15T07:59:44.543Z,1.20
2022-10-15T08:02:21.606Z,1.27
2022-10-15T08:04:48.556Z,1.30
2022-10-15T08:07:15.583Z,1.50
2022-10-15T08:09:42.312Z,1.10
2022-10-15T08:12:09.148Z,1.00
2022-10-15T08:14:40.401Z,1.37
2022-10-15T08:17:07.325Z,1.20
2022-10-15T08:19:34.124Z,1.73
2022-10-15T08:22:01.170Z,1.50
2022-10-15T08:24:27.968Z,1.57
2022-10-15T08:26:54.724Z,1.20
2022-10-15T08:29:21.378Z,1.47
2022-10-15T08:31:49.333Z,1.17
2022-10-15T08:34:16.126Z,1.00
2022-10-15T08:36:42.914Z,1.20
2022-10-15T08:39:10.090Z,1.13
2022-10-15T08:41:39.137Z,1.10
2022-10-15T08:44:13.051Z,1.00
2022-10-15T08:46:45.689Z,1.00
2022-10-15T08:49:27.821Z,1.40
2022-10-15T08:52:01.020Z,1.47
2022-10-15T08:54:27.932Z,1.30
2022-10-15T08:57:17.774Z,1.60
2022-10-15T08:59:55.835Z,1.33
2022-10-15T09:02:30.894Z,1.47
2022-10-15T09:05:39.205Z,1.30
2022-10-15T09:08:22.510Z,1.40
2022-10-15T09:10:57.630Z,1.20
2022-10-15T09:13:42.263Z,1.70
2022-10-15T09:16:18.420Z,1.33
2022-10-15T09:18:49.552Z,1.27
2022-10-15T09:21:16.796Z,1.40
2022-10-15T09:23:44.343Z,1.30
2022-10-15T09:26:25.981Z,1.20
2022-10-15T09:29:13.464Z,1.40
2022-10-15T09:32:12.605Z,1.30
2022-10-15T09:35:00.424Z,1.40
2022-10-15T09:37:33.470Z,1.43
2022-10-15T09:40:34.549Z,1.60
2022-10-15T09:43:02.694Z,1.60
2022-10-15T09:45:29.995Z,1.50
2022-10-15T09:48:04.043Z,1.60
2022-10-15T09:50:47.930Z,1.53
2022-10-15T09:53:29.699Z,2.03
2022-10-15T09:56:22.699Z,1.10
2022-10-15T09:58:57.815Z,1.00
2022-10-15T10:01:28.866Z,1.23
2022-10-15T10:04:12.767Z,1.50
2022-10-15T10:06:55.078Z,1.60
2022-10-15T10:09:23.435Z,1.40
2022-10-15T10:12:05.070Z,1.00
2022-10-15T10:14:41.702Z,1.30
2022-10-15T10:17:22.283Z,1.43
2022-10-15T10:20:10.131Z,1.20
2022-10-15T10:22:50.386Z,1.00
2022-10-15T10:25:54.084Z,1.00
2022-10-15T10:28:29.958Z,1.13
2022-10-15T10:30:56.846Z,0.90
2022-10-15T10:33:47.702Z,1.03
2022-10-15T10:36:34.256Z,1.13
2022-10-15T10:39:13.968Z,0.97
2022-10-15T10:42:04.712Z,0.80
2022-10-15T10:44:35.784Z,1.00
2022-10-15T10:47:08.225Z,0.90
2022-10-15T10:49:37.772Z,0.80
2022-10-15T10:52:06.621Z,0.90
2022-10-15T10:54:34.194Z,0.80
2022-10-15T10:57:01.646Z,1.10
2022-10-15T10:59:35.554Z,0.80
2022-10-15T11:02:04.419Z,0.80
2022-10-15T11:04:34.699Z,0.90
2022-10-15T11:07:31.649Z,0.90
2022-10-15T11:10:07.530Z,0.90
2022-10-15T11:12:34.293Z,0.90
2022-10-15T11:15:22.787Z,1.00
2022-10-15T11:18:20.029Z,1.10
2022-10-15T11:21:06.045Z,1.00
2022-10-15T11:24:05.423Z,0.80
2022-10-15T11:27:10.587Z,1.97
2022-10-15T11:29:52.648Z,1.40
2022-10-15T11:32:42.129Z,1.00
2022-10-15T11:35:51.526Z,0.87
2022-10-15T11:38:39.904Z,1.10
2022-10-15T11:41:27.856Z,1.10
2022-10-15T11:44:19.612Z,1.10
2022-10-15T11:47:11.220Z,1.00
2022-10-15T11:49:40.750Z,0.90
2022-10-15T11:52:30.156Z,1.00
2022-10-15T11:55:17.559Z,1.10
2022-10-15T11:57:46.954Z,1.10
2022-10-15T12:00:42.796Z,1.23
2022-10-15T12:03:18.202Z,1.20
2022-10-15T12:05:59.475Z,1.40
2022-10-15T12:08:30.723Z,0.90
2022-10-15T12:11:19.318Z,0.90
2022-10-15T12:14:00.908Z,0.83
2022-10-15T12:20:03.744Z,1.20
2022-10-15T12:22:55.528Z,1.20
2022-10-15T12:25:34.502Z,0.80
2022-10-15T12:28:08.711Z,0.90
2022-10-15T12:30:37.646Z,0.97
2022-10-15T12:33:25.239Z,0.90
2022-10-15T12:36:00.944Z,1.03
2022-10-15T12:38:53.155Z,0.70
2022-10-15T12:41:20.011Z,0.90
2022-10-15T12:44:04.099Z,1.10
2022-10-15T12:46:40.561Z,1.10
2022-10-15T12:49:27.255Z,0.80
2022-10-15T12:51:58.590Z,1.07
2022-10-15T12:54:38.917Z,0.90
2022-10-15T12:57:31.754Z,1.00
2022-10-15T13:00:00.101Z,1.00
2022-10-15T13:02:37.843Z,1.27
2022-10-15T13:05:06.968Z,1.20
2022-10-15T13:07:39.335Z,1.37
2022-10-15T13:10:34.981Z,1.37
2022-10-15T13:13:05.259Z,1.00
2022-10-15T13:15:34.237Z,1.00
2022-10-15T13:18:08.573Z,0.90
2022-10-15T13:20:38.984Z,1.10
2022-10-15T13:23:30.141Z,0.90
2022-10-15T13:26:12.087Z,1.20
2022-10-15T13:28:42.066Z,1.40
2022-10-15T13:31:30.804Z,1.00
2022-10-15T13:34:26.758Z,1.13
2022-10-15T13:36:55.687Z,1.20
2022-10-15T13:39:35.028Z,1.13
2022-10-15T13:42:14.955Z,1.10
2022-10-15T13:44:42.959Z,1.17
2022-10-15T13:47:30.037Z,1.60
2022-10-15T13:50:24.918Z,1.10
2022-10-15T13:52:57.454Z,1.20
2022-10-15T13:55:30.744Z,1.30
2022-10-15T13:58:01.907Z,1.50
2022-10-15T14:00:32.145Z,1.30
2022-10-15T14:03:19.560Z,1.20
2022-10-15T14:05:48.015Z,1.20
2022-10-15T14:08:19.344Z,1.63
2022-10-15T14:10:47.346Z,1.30
2022-10-15T14:13:14.385Z,1.67
2022-10-15T14:15:42.230Z,1.20
2022-10-15T14:18:09.973Z,1.27
2022-10-15T14:20:36.970Z,1.30
2022-10-15T14:23:03.886Z,1.40
2022-10-15T14:25:30.623Z,1.57
2022-10-15T14:27:57.341Z,1.30
2022-10-15T14:30:29.991Z,1.57
2022-10-15T14:32:56.785Z,1.60
2022-10-15T14:35:23.751Z,1.87
2022-10-15T14:38:04.493Z,1.37
2022-10-15T14:40:31.782Z,1.40
2022-10-15T14:43:34.142Z,1.50
2022-10-15T14:46:04.617Z,1.63
2022-10-15T14:48:37.900Z,1.37
2022-10-15T14:51:08.022Z,1.33
2022-10-15T14:53:38.486Z,1.83
2022-10-15T14:56:16.245Z,1.43
2022-10-15T14:58:52.236Z,1.63
2022-10-15T15:01:20.611Z,1.73
2022-10-15T15:03:50.386Z,1.87
2022-10-15T15:06:17.526Z,2.33
2022-10-15T15:08:44.884Z,2.20
2022-10-15T15:11:15.252Z,2.00
2022-10-15T15:13:44.507Z,2.07
2022-10-15T15:16:17.118Z,1.77
2022-10-15T15:18:46.236Z,1.50
2022-10-15T15:21:16.418Z,1.77
2022-10-15T15:23:44.307Z,1.77
2022-10-15T15:26:11.147Z,1.30
2022-10-15T15:28:37.955Z,1.60
2022-10-15T15:31:13.356Z,1.43
2022-10-15T15:33:41.295Z,1.60
2022-10-15T15:36:12.659Z,1.60
2022-10-15T15:38:39.741Z,1.60
2022-10-15T15:41:21.322Z,1.40
2022-10-15T15:43:48.453Z,2.70
2022-10-15T15:46:15.619Z,2.60
2022-10-15T15:48:42.349Z,2.47
2022-10-15T15:51:22.722Z,2.37
2022-10-15T15:53:49.554Z,1.77
2022-10-15T15:56:16.398Z,2.50
2022-10-15T15:58:43.431Z,2.23
2022-10-15T16:01:10.884Z,1.37
2022-10-15T16:03:38.693Z,1.40
2022-10-15T16:06:07.118Z,1.37
2022-10-15T16:08:35.458Z,1.60
2022-10-15T16:11:03.353Z,1.60
2022-10-15T16:13:30.057Z,1.20
2022-10-15T16:15:57.018Z,1.53
2022-10-15T16:18:23.846Z,1.60
2022-10-15T16:20:51.134Z,1.73
2022-10-15T16:23:18.121Z,1.43
2022-10-15T16:25:44.836Z,2.00
2022-10-15T16:28:11.764Z,1.80
2022-10-15T16:30:38.451Z,1.30
2022-10-15T16:33:09.954Z,1.97
2022-10-15T16:35:36.821Z,1.57
2022-10-15T16:38:03.604Z,1.40
2022-10-15T16:40:30.380Z,1.40
2022-10-15T16:42:57.107Z,2.30
2022-10-15T16:45:23.943Z,2.50
2022-10-15T16:47:50.728Z,1.60
2022-10-15T16:50:17.510Z,1.40
2022-10-15T16:52:44.241Z,1.50
2022-10-15T16:55:11.107Z,1.73
2022-10-15T16:57:37.979Z,1.37
2022-10-15T17:00:05.168Z,1.37
2022-10-15T17:02:31.982Z,1.30
2022-10-15T17:04:58.685Z,1.57
2022-10-15T17:07:25.649Z,1.80
2022-10-15T17:09:52.709Z,2.40
2022-10-15T17:12:19.420Z,1.83
2022-10-15T17:14:53.120Z,1.73
2022-10-15T17:17:20.104Z,1.90
2022-10-15T17:19:46.883Z,1.50
2022-10-15T17:22:13.616Z,1.37
2022-10-15T17:24:40.482Z,2.40
2022-10-15T17:27:07.219Z,1.80
2022-10-15T17:29:34.100Z,1.30
2022-10-15T17:32:02.419Z,1.20
2022-10-15T17:34:29.456Z,1.60
2022-10-15T17:36:56.845Z,1.30
2022-10-15T17:39:24.450Z,1.20
2022-10-15T17:41:52.037Z,1.53
2022-10-15T17:44:19.565Z,1.20
2022-10-15T17:46:46.359Z,1.70
2022-10-15T17:49:18.031Z,1.63
2022-10-15T17:51:45.663Z,1.83
2022-10-15T17:54:12.868Z,1.47
2022-10-15T17:56:39.948Z,2.07
2022-10-15T17:59:08.921Z,2.30
2022-10-15T18:04:27.853Z,2.00
2022-10-15T18:06:54.592Z,2.40
2022-10-15T18:09:21.698Z,2.20
2022-10-15T18:11:49.124Z,1.80
2022-10-15T18:14:16.110Z,2.03
2022-10-15T18:16:44.042Z,1.67
2022-10-15T18:19:10.989Z,1.50
2022-10-15T18:21:38.009Z,1.60
2022-10-15T18:24:05.016Z,1.70
2022-10-15T18:26:32.302Z,2.40
2022-10-15T18:28:59.193Z,1.67
2022-10-15T18:31:26.518Z,2.00
2022-10-15T18:33:56.027Z,2.13
2022-10-15T18:36:26.170Z,2.37
2022-10-15T18:38:53.617Z,1.97
2022-10-15T18:41:21.605Z,2.20
2022-10-15T18:44:06.464Z,1.90
2022-10-15T18:46:34.974Z,1.73
2022-10-15T18:49:02.582Z,2.00
2022-10-15T18:51:29.841Z,1.80
2022-10-15T18:53:56.646Z,1.90
2022-10-15T18:56:23.558Z,2.00
2022-10-15T18:58:52.601Z,2.23
2022-10-15T19:01:37.440Z,2.10
2022-10-15T19:04:07.447Z,2.00
2022-10-15T19:06:37.660Z,1.53
2022-10-15T19:09:07.034Z,1.93
2022-10-15T19:11:35.188Z,1.80
2022-10-15T19:14:02.683Z,1.60
2022-10-15T19:16:29.575Z,1.93
2022-10-15T19:18:56.580Z,2.27
2022-10-15T19:21:23.324Z,2.20
2022-10-15T19:23:50.181Z,1.60
2022-10-15T19:26:17.625Z,1.40
2022-10-15T19:28:44.676Z,1.80
2022-10-15T19:31:18.009Z,1.60
2022-10-15T19:33:44.758Z,1.67
2022-10-15T19:36:11.777Z,1.70
2022-10-15T19:38:38.598Z,1.63
2022-10-15T19:41:07.725Z,1.40
2022-10-15T19:43:34.692Z,1.70
2022-10-15T19:46:04.749Z,2.10
2022-10-15T19:48:31.693Z,1.73
2022-10-15T19:51:02.140Z,1.63
2022-10-15T19:53:29.387Z,1.80
2022-10-15T19:56:05.434Z,1.87
2022-10-15T19:58:33.234Z,1.90
2022-10-15T20:01:00.321Z,2.00
2022-10-15T20:03:29.231Z,1.30
2022-10-15T20:05:57.388Z,1.60
2022-10-15T20:08:24.584Z,1.50
2022-10-15T20:10:52.164Z,1.90
2022-10-15T20:13:21.103Z,2.00
2022-10-15T20:15:53.179Z,1.97
2022-10-15T20:18:21.332Z,2.30
2022-10-15T20:20:48.616Z,2.17
2022-10-15T20:23:16.738Z,1.83
2022-10-15T20:25:44.817Z,1.70
2022-10-15T20:28:13.595Z,1.57
2022-10-15T20:30:40.875Z,1.90
2022-10-15T20:33:09.707Z,1.90
2022-10-15T20:35:38.999Z,2.00
2022-10-15T20:38:07.317Z,1.80
2022-10-15T20:40:35.503Z,2.13
2022-10-15T20:43:02.336Z,2.20
2022-10-15T20:45:38.172Z,2.40
2022-10-15T20:48:05.504Z,3.00
2022-10-15T20:50:35.954Z,2.80
2022-10-15T20:53:03.769Z,2.03
2022-10-15T20:55:30.495Z,1.73
2022-10-15T20:57:57.498Z,2.20
2022-10-15T21:00:24.325Z,1.33
2022-10-15T21:02:51.012Z,1.90
2022-10-15T21:05:17.955Z,1.80
2022-10-15T21:07:44.636Z,1.57
2022-10-15T21:10:11.422Z,1.40
2022-10-15T21:12:38.832Z,2.10
2022-10-15T21:15:06.296Z,1.40
2022-10-15T21:17:33.208Z,1.47
2022-10-15T21:20:00.447Z,1.20
2022-10-15T21:22:27.179Z,1.40
2022-10-15T21:24:53.854Z,1.53
2022-10-15T21:27:20.640Z,1.13
2022-10-15T21:29:49.599Z,1.67
2022-10-15T21:32:16.573Z,1.87
2022-10-15T21:34:43.502Z,1.90
2022-10-15T21:37:10.413Z,2.13
2022-10-15T21:39:37.083Z,1.90
2022-10-15T21:42:03.958Z,2.30
2022-10-15T21:44:30.787Z,1.90
2022-10-15T21:46:57.555Z,1.57
2022-10-15T21:49:24.317Z,1.70
2022-10-15T21:51:51.075Z,1.43
2022-10-15T21:54:17.986Z,1.70
2022-10-15T21:56:44.729Z,1.60
2022-10-15T21:59:11.487Z,1.43
2022-10-15T22:01:38.394Z,1.30
2022-10-15T22:04:07.570Z,1.80
2022-10-15T22:06:35.616Z,1.70
2022-10-15T22:09:03.859Z,1.60
2022-10-15T22:11:33.646Z,2.30
2022-10-15T22:14:03.831Z,2.03
2022-10-15T22:16:33.507Z,1.70
2022-10-15T22:19:00.453Z,1.80
2022-10-15T22:21:30.193Z,1.40
2022-10-15T22:23:59.804Z,1.57
2022-10-15T22:26:32.522Z,2.70
2022-10-15T22:29:01.517Z,1.60
2022-10-15T22:31:28.820Z,2.30
2022-10-15T22:33:55.802Z,2.40
2022-10-15T22:36:24.598Z,2.67
2022-10-15T22:39:04.903Z,2.60
2022-10-15T22:41:34.423Z,2.23
2022-10-15T22:44:01.412Z,2.70
2022-10-15T22:46:31.217Z,2.40
2022-10-15T22:48:58.054Z,2.70
2022-10-15T22:51:24.725Z,2.73
2022-10-15T22:53:55.573Z,2.40
2022-10-15T22:56:22.807Z,3.10
2022-10-15T22:58:49.641Z,2.60
2022-10-15T23:01:28.205Z,2.70
2022-10-15T23:03:57.918Z,2.67
2022-10-15T23:06:25.926Z,2.50
2022-10-15T23:08:52.993Z,2.57
2022-10-15T23:11:26.381Z,3.37
2022-10-15T23:13:55.812Z,2.73
2022-10-15T23:16:25.316Z,2.47
2022-10-15T23:18:58.152Z,2.67
2022-10-15T23:21:29.369Z,2.53
2022-10-15T23:23:56.449Z,2.67
2022-10-15T23:26:23.742Z,2.07
2022-10-15T23:28:56.407Z,2.60
2022-10-15T23:31:28.889Z,2.60
2022-10-15T23:33:56.636Z,2.33
2022-10-15T23:36:25.868Z,2.70
2022-10-15T23:38:56.149Z,2.43
2022-10-15T23:41:23.859Z,2.47
2022-10-15T23:43:50.896Z,2.87
2022-10-15T23:46:17.902Z,2.70
2022-10-15T23:48:44.638Z,2.37
2022-10-15T23:51:19.786Z,2.57
2022-10-15T23:53:46.793Z,2.40
2022-10-15T23:56:14.068Z,2.50
2022-10-15T23:58:41.495Z,2.67
